Time;durP1;ratioP1;P1;durP2;ratioP2;P2;SDS_P1;SDS_P2;PMS_P1;PMS_P2;Temp;Humidity;BMP_temperature;BMP_pressure;BME280_temperature;BME280_humidity;BME280_pressure;Samples;Min_cycle;Max_cycle;Signal;HPM_P1;HPM_P2
2022/08/17 00:00:23;;;;;;;;;;;24.20;50.30;;;;;;4930701;29;19911;-92
2022/08/17 00:02:56;;;;;;;;;;;24.20;50.10;;;;;;4930498;29;19923;-93
2022/08/17 00:05:22;;;;;;;;;;;24.20;50.40;;;;;;4930866;29;19915;-93
2022/08/17 00:07:49;;;;;;;;;;;24.20;51.40;;;;;;4928301;29;19966;-92
2022/08/17 00:10:15;;;;;;;;;;;24.10;51.10;;;;;;4945024;29;19990;-94
2022/08/17 00:12:41;;;;;;;;;;;24.10;51.00;;;;;;4928557;29;19922;-93
2022/08/17 00:15:07;;;;;;;;;;;24.10;51.00;;;;;;4945894;29;19911;-92
2022/08/17 00:17:40;;;;;;;;;;;24.10;50.80;;;;;;4927736;29;19919;-93
2022/08/17 00:20:12;;;;;;;;;;;24.10;50.60;;;;;;4927856;29;19906;-92
2022/08/17 00:22:38;;;;;;;;;;;24.00;50.60;;;;;;4927892;29;19918;-93
2022/08/17 00:25:06;;;;;;;;;;;24.00;50.50;;;;;;4924893;29;19926;-92
2022/08/17 00:27:32;;;;;;;;;;;23.90;50.40;;;;;;4926800;29;19930;-91
2022/08/17 00:29:58;;;;;;;;;;;24.00;50.40;;;;;;4946588;29;19993;-94
2022/08/17 00:32:23;;;;;;;;;;;24.00;50.30;;;;;;4929363;29;19967;-92
2022/08/17 00:34:49;;;;;;;;;;;24.00;50.20;;;;;;4944837;29;20011;-93
2022/08/17 00:37:14;;;;;;;;;;;24.00;50.20;;;;;;4931796;29;19923;-92
2022/08/17 00:39:40;;;;;;;;;;;24.00;50.20;;;;;;4931688;29;19926;-94
2022/08/17 00:42:12;;;;;;;;;;;24.00;50.20;;;;;;4929802;29;19925;-93
2022/08/17 00:44:37;;;;;;;;;;;24.00;50.30;;;;;;4931165;29;19982;-93
2022/08/17 00:47:03;;;;;;;;;;;24.00;50.30;;;;;;4930168;29;19977;-93
2022/08/17 00:49:30;;;;;;;;;;;24.00;50.30;;;;;;4930970;29;20001;-95
2022/08/17 00:51:57;;;;;;;;;;;24.00;50.30;;;;;;4932103;29;19919;-95
2022/08/17 00:54:27;;;;;;;;;;;24.00;50.20;;;;;;4932327;29;19930;-93
2022/08/17 00:56:55;;;;;;;;;;;24.00;50.20;;;;;;4949062;29;19919;-94
2022/08/17 00:59:24;;;;;;;;;;;24.00;50.10;;;;;;4925489;29;19935;-93
2022/08/17 01:01:50;;;;;;;;;;;24.00;50.10;;;;;;4927688;29;19943;-93
2022/08/17 01:04:17;;;;;;;;;;;24.00;50.10;;;;;;4943404;29;19922;-93
2022/08/17 01:06:45;;;;;;;;;;;24.00;50.20;;;;;;4949268;29;19926;-94
2022/08/17 01:09:11;;;;;;;;;;;23.90;50.30;;;;;;4913134;29;19927;-93
2022/08/17 01:11:39;;;;;;;;;;;23.90;50.30;;;;;;4928864;29;19919;-93
2022/08/17 01:14:05;;;;;;;;;;;23.90;50.50;;;;;;4926746;29;19911;-93
2022/08/17 01:16:31;;;;;;;;;;;23.80;50.40;;;;;;4910032;29;19923;-93
2022/08/17 01:19:02;;;;;;;;;;;23.80;50.50;;;;;;4935346;29;20435;-92
2022/08/17 01:21:32;;;;;;;;;;;23.70;50.50;;;;;;4928797;29;19918;-93
2022/08/17 01:24:00;;;;;;;;;;;23.70;50.60;;;;;;4936348;29;19914;-94
2022/08/17 01:26:27;;;;;;;;;;;23.60;50.90;;;;;;4945010;29;20298;-92
2022/08/17 01:28:52;;;;;;;;;;;23.60;50.90;;;;;;4952708;28;19970;-93
2022/08/17 01:31:18;;;;;;;;;;;23.50;51.00;;;;;;4928354;29;19925;-93
2022/08/17 01:33:44;;;;;;;;;;;23.50;51.40;;;;;;4928109;29;19919;-95
2022/08/17 01:36:09;;;;;;;;;;;23.40;51.70;;;;;;4945629;29;20009;-95
2022/08/17 01:38:35;;;;;;;;;;;23.40;51.90;;;;;;4924851;29;19903;-93
2022/08/17 01:41:04;;;;;;;;;;;23.40;52.00;;;;;;4926599;29;19923;-93
2022/08/17 01:43:36;;;;;;;;;;;23.30;52.10;;;;;;4923135;29;19999;-94
2022/08/17 01:46:01;;;;;;;;;;;23.30;51.90;;;;;;4929865;29;19914;-93
2022/08/17 01:48:31;;;;;;;;;;;23.30;51.80;;;;;;4935798;29;19941;-94
2022/08/17 01:50:56;;;;;;;;;;;23.20;51.90;;;;;;4928557;29;19949;-94
2022/08/17 01:53:25;;;;;;;;;;;23.20;52.10;;;;;;4944637;29;19918;-94
2022/08/17 01:56:10;;;;;;;;;;;23.10;52.00;;;;;;4929786;29;19911;-92
2022/08/17 01:58:36;;;;;;;;;;;23.10;52.00;;;;;;4942410;29;19919;-94
2022/08/17 02:01:03;;;;;;;;;;;23.10;51.90;;;;;;4931996;29;19915;-93
2022/08/17 02:03:28;;;;;;;;;;;23.00;51.90;;;;;;4932204;29;19926;-93
2022/08/17 02:05:54;;;;;;;;;;;23.00;51.80;;;;;;4949785;29;20391;-94
2022/08/17 02:08:20;;;;;;;;;;;23.00;51.80;;;;;;4933849;29;19913;-95
2022/08/17 02:10:47;;;;;;;;;;;23.00;52.20;;;;;;4930653;29;20009;-94
2022/08/17 02:13:13;;;;;;;;;;;23.00;52.30;;;;;;4930423;29;19915;-93
2022/08/17 02:15:40;;;;;;;;;;;23.00;52.40;;;;;;4928299;29;20259;-94
2022/08/17 02:18:06;;;;;;;;;;;23.00;52.70;;;;;;4928641;28;20001;-95
2022/08/17 02:20:32;;;;;;;;;;;22.90;52.70;;;;;;4928929;29;20018;-95
2022/08/17 02:23:02;;;;;;;;;;;22.80;52.90;;;;;;4928318;29;20252;-93
2022/08/17 02:25:29;;;;;;;;;;;22.90;53.00;;;;;;4926644;29;20378;-93
2022/08/17 02:27:54;;;;;;;;;;;22.80;53.00;;;;;;4931149;29;19984;-93
2022/08/17 02:30:20;;;;;;;;;;;22.80;53.10;;;;;;4945832;29;19974;-93
2022/08/17 02:32:45;;;;;;;;;;;22.70;52.90;;;;;;4943877;29;19914;-94
2022/08/17 02:35:13;;;;;;;;;;;22.70;52.90;;;;;;4930024;29;20005;-94
2022/08/17 02:37:41;;;;;;;;;;;22.70;53.40;;;;;;4927061;29;20403;-93
2022/08/17 02:40:07;;;;;;;;;;;22.60;53.40;;;;;;4946837;29;19926;-93
2022/08/17 02:42:43;;;;;;;;;;;22.60;53.40;;;;;;4945898;28;19938;-94
2022/08/17 02:45:10;;;;;;;;;;;22.60;53.50;;;;;;4935536;29;19931;-93
2022/08/17 02:47:36;;;;;;;;;;;22.60;53.70;;;;;;4928541;29;19910;-95
2022/08/17 02:50:03;;;;;;;;;;;22.60;53.60;;;;;;4926467;29;19978;-93
2022/08/17 02:52:33;;;;;;;;;;;22.60;53.50;;;;;;4926958;29;19911;-94
2022/08/17 02:54:58;;;;;;;;;;;22.50;53.50;;;;;;4926984;29;19983;-94
2022/08/17 02:57:24;;;;;;;;;;;22.50;53.40;;;;;;4947639;29;19914;-94
2022/08/17 02:59:50;;;;;;;;;;;22.50;53.40;;;;;;4928079;29;20364;-94
2022/08/17 03:02:15;;;;;;;;;;;22.40;53.30;;;;;;4928044;29;19997;-93
2022/08/17 03:04:41;;;;;;;;;;;22.40;53.30;;;;;;4926584;29;20236;-93
2022/08/17 03:07:06;;;;;;;;;;;22.40;53.30;;;;;;4927422;29;19910;-93
2022/08/17 03:09:32;;;;;;;;;;;22.40;53.40;;;;;;4926724;29;19943;-93
2022/08/17 03:12:09;;;;;;;;;;;22.30;53.50;;;;;;4937985;29;19955;-93
2022/08/17 03:14:39;;;;;;;;;;;22.30;53.40;;;;;;4929067;29;19914;-93
2022/08/17 03:17:04;;;;;;;;;;;22.30;53.50;;;;;;4926407;29;20341;-93
2022/08/17 03:19:30;;;;;;;;;;;22.30;53.40;;;;;;4943967;29;20010;-93
2022/08/17 03:21:56;;;;;;;;;;;22.30;53.40;;;;;;4942920;28;19923;-91
2022/08/17 03:24:22;;;;;;;;;;;22.30;53.50;;;;;;4924641;29;21298;-93
2022/08/17 03:26:47;;;;;;;;;;;22.30;54.40;;;;;;4928673;29;19954;-93
2022/08/17 03:29:17;;;;;;;;;;;22.20;54.50;;;;;;4939177;29;19942;-93
2022/08/17 03:31:44;;;;;;;;;;;22.20;54.70;;;;;;4925338;29;19963;-94
2022/08/17 03:34:09;;;;;;;;;;;22.10;54.80;;;;;;4926018;29;19919;-93
2022/08/17 03:36:35;;;;;;;;;;;22.10;54.60;;;;;;4926549;29;19931;-92
2022/08/17 03:39:00;;;;;;;;;;;22.10;54.40;;;;;;4926669;29;19919;-93
2022/08/17 03:41:26;;;;;;;;;;;22.00;54.40;;;;;;4924570;29;19915;-93
2022/08/17 03:43:51;;;;;;;;;;;22.00;54.30;;;;;;4926973;29;20062;-93
2022/08/17 03:57:18;;;;;;;;;;;22.00;54.20;;;;;;4942977;29;19918;-94
2022/08/17 03:59:43;;;;;;;;;;;22.00;54.20;;;;;;4927951;29;19923;-92
2022/08/17 04:02:11;;;;;;;;;;;22.10;54.20;;;;;;4927635;29;19914;-92
2022/08/17 04:04:37;;;;;;;;;;;22.10;54.10;;;;;;4946244;29;20352;-92
2022/08/17 04:07:03;;;;;;;;;;;22.10;54.00;;;;;;4929366;29;19959;-92
2022/08/17 04:09:29;;;;;;;;;;;22.10;54.00;;;;;;4931681;29;19998;-92
2022/08/17 04:11:56;;;;;;;;;;;22.10;54.10;;;;;;4928930;29;19922;-93
2022/08/17 04:14:21;;;;;;;;;;;22.10;54.10;;;;;;4929300;29;19915;-92
2022/08/17 04:16:47;;;;;;;;;;;22.10;54.20;;;;;;4947379;29;19919;-93
2022/08/17 04:19:16;;;;;;;;;;;22.10;54.20;;;;;;4929590;29;19910;-93
2022/08/17 04:21:41;;;;;;;;;;;22.10;54.20;;;;;;4928712;29;20379;-94
2022/08/17 04:24:09;;;;;;;;;;;22.20;54.20;;;;;;4928496;29;19925;-93
2022/08/17 04:26:35;;;;;;;;;;;22.20;54.20;;;;;;4929577;29;19938;-94
2022/08/17 04:29:00;;;;;;;;;;;22.20;54.40;;;;;;4929276;29;19922;-94
2022/08/17 04:31:26;;;;;;;;;;;22.30;54.60;;;;;;4929168;29;19911;-94
2022/08/17 04:33:51;;;;;;;;;;;22.40;54.80;;;;;;4936580;29;19919;-94
2022/08/17 04:36:17;;;;;;;;;;;22.50;55.00;;;;;;4944760;29;19915;-93
2022/08/17 04:38:44;;;;;;;;;;;22.60;55.10;;;;;;4946038;29;19954;-93
2022/08/17 04:43:57;;;;;;;;;;;22.90;54.90;;;;;;4947410;29;19921;-94
2022/08/17 04:46:32;;;;;;;;;;;23.10;55.00;;;;;;4927925;29;19919;-94
2022/08/17 04:48:59;;;;;;;;;;;23.20;55.10;;;;;;4927663;29;20010;-92
2022/08/17 04:51:36;;;;;;;;;;;23.40;55.30;;;;;;4928035;29;19921;-96
2022/08/17 04:54:04;;;;;;;;;;;23.70;55.30;;;;;;4928555;29;19915;-94
2022/08/17 04:56:30;;;;;;;;;;;23.80;55.10;;;;;;4944958;29;19915;-94
2022/08/17 04:58:56;;;;;;;;;;;24.00;54.90;;;;;;4945647;29;20352;-93
2022/08/17 05:01:26;;;;;;;;;;;24.20;54.60;;;;;;4928483;29;19915;-93
2022/08/17 05:03:53;;;;;;;;;;;24.30;54.60;;;;;;4928569;29;19958;-94
2022/08/17 05:06:18;;;;;;;;;;;24.50;54.40;;;;;;4937583;29;20713;-94
2022/08/17 05:08:44;;;;;;;;;;;24.60;54.30;;;;;;4923905;29;19923;-93
2022/08/17 05:11:10;;;;;;;;;;;24.70;54.00;;;;;;4946996;29;19915;-94
2022/08/17 05:13:35;;;;;;;;;;;24.80;53.70;;;;;;4924361;29;20028;-93
2022/08/17 05:16:02;;;;;;;;;;;25.00;53.60;;;;;;4927354;29;19925;-93
2022/08/17 05:18:28;;;;;;;;;;;25.10;53.50;;;;;;4928495;29;19938;-94
2022/08/17 05:20:53;;;;;;;;;;;25.20;53.40;;;;;;4939388;29;19965;-94
2022/08/17 05:23:22;;;;;;;;;;;25.30;53.40;;;;;;4935657;29;19918;-94
2022/08/17 05:25:49;;;;;;;;;;;25.50;53.20;;;;;;4928547;29;19918;-94
2022/08/17 05:28:16;;;;;;;;;;;25.70;52.90;;;;;;4946796;29;19923;-94
2022/08/17 05:30:42;;;;;;;;;;;25.80;52.60;;;;;;4927710;29;19938;-96
2022/08/17 05:33:18;;;;;;;;;;;25.90;52.30;;;;;;4941795;29;19941;-94
2022/08/17 05:35:48;;;;;;;;;;;26.00;52.10;;;;;;4936282;29;19911;-94
2022/08/17 05:38:14;;;;;;;;;;;26.10;51.80;;;;;;4938770;29;19919;-95
2022/08/17 05:40:39;;;;;;;;;;;26.20;51.60;;;;;;4940624;29;20036;-95
2022/08/17 05:43:16;;;;;;;;;;;26.30;51.40;;;;;;4930419;29;19922;-95
2022/08/17 05:45:54;;;;;;;;;;;26.30;51.10;;;;;;4925577;29;20279;-95
2022/08/17 05:48:20;;;;;;;;;;;26.50;50.80;;;;;;4924091;29;19958;-95
2022/08/17 05:51:00;;;;;;;;;;;26.50;50.70;;;;;;4930009;28;19930;-96
2022/08/17 05:53:31;;;;;;;;;;;26.50;50.50;;;;;;4940590;29;19965;-95
2022/08/17 05:55:57;;;;;;;;;;;26.60;50.40;;;;;;4926151;29;19918;-93
2022/08/17 05:58:30;;;;;;;;;;;26.70;50.40;;;;;;4928041;29;19923;-94
2022/08/17 06:01:07;;;;;;;;;;;26.80;50.50;;;;;;4927528;29;19911;-95
2022/08/17 06:03:41;;;;;;;;;;;27.00;50.60;;;;;;4939735;28;19919;-93
2022/08/17 06:06:23;;;;;;;;;;;27.10;50.50;;;;;;4935830;29;19918;-94
2022/08/17 06:08:48;;;;;;;;;;;27.40;50.70;;;;;;4942858;29;20415;-94
2022/08/17 06:11:37;;;;;;;;;;;27.70;50.50;;;;;;4944361;29;19911;-95
2022/08/17 06:14:25;;;;;;;;;;;28.00;50.10;;;;;;4927790;29;19930;-94
2022/08/17 06:16:58;;;;;;;;;;;28.30;49.70;;;;;;4949720;29;19949;-96
2022/08/17 06:19:32;;;;;;;;;;;28.50;48.90;;;;;;4932694;29;19930;-96
2022/08/17 06:21:58;;;;;;;;;;;28.60;48.10;;;;;;4931175;29;19911;-96
2022/08/17 06:24:35;;;;;;;;;;;28.80;48.00;;;;;;4929739;29;19944;-96
2022/08/17 06:27:06;;;;;;;;;;;29.20;48.20;;;;;;4929704;29;20068;-96
2022/08/17 06:29:34;;;;;;;;;;;29.60;48.20;;;;;;4930153;29;20061;-96
2022/08/17 06:32:01;;;;;;;;;;;30.10;47.90;;;;;;4940111;29;19915;-96
2022/08/17 06:34:26;;;;;;;;;;;30.50;47.30;;;;;;4927039;29;19919;-96
2022/08/17 06:37:01;;;;;;;;;;;31.10;46.80;;;;;;4929261;29;19918;-96
2022/08/17 06:39:30;;;;;;;;;;;31.70;45.70;;;;;;4928752;29;20399;-95
2022/08/17 06:42:11;;;;;;;;;;;32.20;44.70;;;;;;4927731;29;19896;-95
2022/08/17 06:45:03;;;;;;;;;;;32.70;43.70;;;;;;4928112;29;19942;-95
2022/08/17 06:47:47;;;;;;;;;;;33.00;42.10;;;;;;4940714;28;19934;-96
2022/08/17 06:50:19;;;;;;;;;;;33.30;40.50;;;;;;4927317;29;19896;-93
2022/08/17 09:17:02;;;;;;;;;;;40.90;25.80;;;;;;4949274;28;19942;-96
2022/08/17 09:19:30;;;;;;;;;;;41.00;25.60;;;;;;4949392;29;19915;-94
2022/08/17 09:22:02;;;;;;;;;;;41.20;25.50;;;;;;4952790;29;19970;-96
2022/08/17 09:31:56;;;;;;;;;;;42.50;24.90;;;;;;4954501;28;19923;-96
2022/08/17 09:34:25;;;;;;;;;;;43.00;24.20;;;;;;4954736;28;19922;-96
2022/08/17 09:36:58;;;;;;;;;;;43.50;23.80;;;;;;4954786;29;19914;-96
2022/08/17 09:41:53;;;;;;;;;;;44.30;23.00;;;;;;4952625;28;19947;-96
2022/08/17 09:45:10;;;;;;;;;;;44.40;22.00;;;;;;4934512;29;19919;-96
2022/08/17 09:47:54;;;;;;;;;;;44.40;22.10;;;;;;4936415;29;19923;-95
2022/08/17 09:50:23;;;;;;;;;;;44.60;21.60;;;;;;4949627;28;19946;-96
2022/08/17 09:52:52;;;;;;;;;;;44.40;21.40;;;;;;4952468;28;19944;-96
2022/08/17 09:55:17;;;;;;;;;;;44.20;21.60;;;;;;4953073;28;19911;-96
2022/08/17 09:58:06;;;;;;;;;;;44.20;21.70;;;;;;4952842;29;19919;-95
2022/08/17 10:00:38;;;;;;;;;;;44.20;21.60;;;;;;4943526;28;20382;-96
2022/08/17 10:03:16;;;;;;;;;;;44.10;21.70;;;;;;4952280;29;19917;-96
2022/08/17 10:06:03;;;;;;;;;;;43.90;21.50;;;;;;4952301;29;19923;-95
2022/08/17 10:08:51;;;;;;;;;;;43.80;21.80;;;;;;4959352;28;19942;-95
2022/08/17 10:11:22;;;;;;;;;;;43.70;21.60;;;;;;4963157;28;19921;-95
2022/08/17 10:14:01;;;;;;;;;;;43.50;21.30;;;;;;4962698;28;19903;-96
2022/08/17 10:16:39;;;;;;;;;;;43.30;21.20;;;;;;4963197;28;19922;-95
2022/08/17 10:19:12;;;;;;;;;;;43.00;21.40;;;;;;4949508;28;19904;-94
2022/08/17 10:37:53;;;;;;;;;;;41.80;21.80;;;;;;5211552;23;19985;-94
2022/08/17 10:40:29;;;;;;;;;;;41.60;22.00;;;;;;4931846;29;20375;-96
2022/08/17 10:42:58;;;;;;;;;;;41.30;22.20;;;;;;4952538;29;20288;-96
2022/08/17 10:45:34;;;;;;;;;;;41.20;22.40;;;;;;4954751;28;19937;-96
2022/08/17 10:48:06;;;;;;;;;;;41.10;22.40;;;;;;4971964;28;19917;-96
2022/08/17 10:50:56;;;;;;;;;;;41.00;22.60;;;;;;4972114;28;19918;-95
2022/08/17 10:53:31;;;;;;;;;;;40.90;22.60;;;;;;4986641;28;19919;-96
2022/08/17 10:58:37;;;;;;;;;;;40.70;22.10;;;;;;4969773;28;19930;-96
2022/08/17 11:01:03;;;;;;;;;;;40.60;22.20;;;;;;4952923;28;19922;-96
2022/08/17 11:03:31;;;;;;;;;;;40.40;22.20;;;;;;4962971;28;19918;-96
2022/08/17 11:06:11;;;;;;;;;;;40.30;22.40;;;;;;4953535;29;19963;-96
2022/08/17 11:08:56;;;;;;;;;;;40.20;22.70;;;;;;4951286;29;19925;-96
2022/08/17 11:11:46;;;;;;;;;;;40.00;22.80;;;;;;4966870;28;20291;-95
2022/08/17 11:14:38;;;;;;;;;;;39.80;23.10;;;;;;4961595;28;20307;-95
2022/08/17 11:17:13;;;;;;;;;;;39.70;22.90;;;;;;4965954;28;19937;-94
2022/08/17 11:19:42;;;;;;;;;;;39.60;23.10;;;;;;4972691;28;19956;-96
2022/08/17 11:22:21;;;;;;;;;;;39.70;23.10;;;;;;4948618;28;19915;-96
2022/08/17 11:24:50;;;;;;;;;;;39.70;23.00;;;;;;4948461;29;19937;-95
2022/08/17 11:27:27;;;;;;;;;;;39.70;22.90;;;;;;4948653;29;19911;-96
2022/08/17 11:29:57;;;;;;;;;;;39.50;22.80;;;;;;4932850;28;19921;-96
2022/08/17 11:32:48;;;;;;;;;;;39.40;22.80;;;;;;4929985;29;19954;-96
2022/08/17 11:35:20;;;;;;;;;;;39.20;22.70;;;;;;4930899;29;19919;-96
2022/08/17 11:37:48;;;;;;;;;;;39.20;23.10;;;;;;4946743;29;19991;-96
2022/08/17 11:40:32;;;;;;;;;;;39.10;23.30;;;;;;4960833;29;19919;-96
2022/08/17 11:43:02;;;;;;;;;;;39.00;23.30;;;;;;4949634;28;19915;-95
2022/08/17 11:45:33;;;;;;;;;;;38.90;23.10;;;;;;4936451;29;19915;-95
2022/08/17 11:53:40;;;;;;;;;;;38.50;23.50;;;;;;4980783;28;19965;-96
2022/08/17 11:56:27;;;;;;;;;;;38.40;23.60;;;;;;4949731;29;19919;-96
2022/08/17 11:58:53;;;;;;;;;;;38.40;23.90;;;;;;4948093;28;19922;-95
2022/08/17 12:01:21;;;;;;;;;;;38.40;23.80;;;;;;4950743;29;19917;-95
2022/08/17 12:03:57;;;;;;;;;;;38.50;23.80;;;;;;4968588;28;19907;-94
2022/08/17 12:06:23;;;;;;;;;;;38.60;23.90;;;;;;4970258;28;19923;-96
2022/08/17 12:08:54;;;;;;;;;;;38.80;23.70;;;;;;4952314;28;19918;-96
2022/08/17 12:11:24;;;;;;;;;;;39.10;23.60;;;;;;4951705;28;19925;-96
2022/08/17 12:13:52;;;;;;;;;;;39.10;23.30;;;;;;4951907;28;19914;-96
2022/08/17 12:16:19;;;;;;;;;;;39.20;23.30;;;;;;4953372;28;20014;-96
2022/08/17 12:18:49;;;;;;;;;;;39.20;23.30;;;;;;4951306;28;19914;-95
2022/08/17 12:21:15;;;;;;;;;;;39.30;23.40;;;;;;4950990;29;19921;-94
2022/08/17 12:24:05;;;;;;;;;;;39.40;23.20;;;;;;4956221;29;19965;-96
2022/08/17 12:26:37;;;;;;;;;;;39.30;23.00;;;;;;4948361;28;19934;-96
2022/08/17 12:29:04;;;;;;;;;;;39.30;23.00;;;;;;4956821;29;19919;-95
2022/08/17 12:31:34;;;;;;;;;;;39.20;23.10;;;;;;4973535;28;19922;-96
2022/08/17 16:49:48;;;;;;;;;;;34.30;27.80;;;;;;4945594;28;20029;-95
2022/08/17 16:52:24;;;;;;;;;;;34.30;27.80;;;;;;4946777;29;19915;-93
2022/08/17 16:54:49;;;;;;;;;;;34.40;27.90;;;;;;4935301;29;19921;-94
2022/08/17 17:02:53;;;;;;;;;;;34.40;27.90;;;;;;4926796;29;19923;-96
2022/08/17 17:05:43;;;;;;;;;;;34.50;28.00;;;;;;4935760;29;19927;-96
2022/08/17 17:08:24;;;;;;;;;;;34.50;28.00;;;;;;4931254;29;19911;-95
2022/08/17 17:10:59;;;;;;;;;;;34.60;28.00;;;;;;4933238;29;19934;-95
2022/08/17 17:13:32;;;;;;;;;;;34.60;27.90;;;;;;4950615;29;19919;-95
2022/08/17 17:16:13;;;;;;;;;;;34.60;27.90;;;;;;4947793;29;19910;-93
2022/08/17 17:18:40;;;;;;;;;;;34.60;27.90;;;;;;4951535;29;19968;-95
2022/08/17 17:21:12;;;;;;;;;;;34.50;28.00;;;;;;4950883;29;19926;-95
2022/08/17 17:24:21;;;;;;;;;;;34.50;28.10;;;;;;4945635;29;20398;-94
2022/08/17 17:27:00;;;;;;;;;;;34.30;28.30;;;;;;4890104;29;19919;-95
2022/08/17 17:29:30;;;;;;;;;;;34.30;28.50;;;;;;4890493;29;19931;-95
2022/08/17 17:32:08;;;;;;;;;;;34.20;28.60;;;;;;4908339;29;19922;-94
2022/08/17 17:34:35;;;;;;;;;;;34.20;28.70;;;;;;4911691;29;19986;-96
2022/08/17 17:37:06;;;;;;;;;;;34.20;28.80;;;;;;4931399;29;19962;-95
2022/08/17 17:39:49;;;;;;;;;;;34.00;28.90;;;;;;4926743;29;19957;-95
2022/08/17 17:42:20;;;;;;;;;;;34.00;28.90;;;;;;4928008;29;19962;-96
2022/08/17 17:44:53;;;;;;;;;;;33.90;29.00;;;;;;4914897;29;19915;-95
2022/08/17 17:47:23;;;;;;;;;;;33.90;29.10;;;;;;4907617;29;20018;-95
2022/08/17 17:49:49;;;;;;;;;;;33.80;29.20;;;;;;4915460;29;19911;-94
2022/08/17 17:52:29;;;;;;;;;;;33.70;29.40;;;;;;4927498;29;20728;-96
2022/08/17 17:54:57;;;;;;;;;;;33.50;29.60;;;;;;4930821;29;19911;-96
2022/08/17 17:57:53;;;;;;;;;;;33.40;29.70;;;;;;4946409;29;20380;-94
2022/08/17 18:00:57;;;;;;;;;;;33.30;29.90;;;;;;4943278;29;19925;-96
2022/08/17 18:03:51;;;;;;;;;;;33.20;30.10;;;;;;4905572;29;19916;-95
2022/08/17 18:06:32;;;;;;;;;;;33.10;30.30;;;;;;4905888;29;19927;-96
2022/08/17 18:09:04;;;;;;;;;;;33.00;30.60;;;;;;4919470;29;20260;-96
2022/08/17 18:11:56;;;;;;;;;;;32.80;30.80;;;;;;4944898;29;19919;-94
2022/08/17 18:24:48;;;;;;;;;;;32.40;31.20;;;;;;4950544;28;19994;-93
2022/08/17 18:27:35;;;;;;;;;;;32.30;31.50;;;;;;4936563;29;19915;-92
2022/08/17 18:30:15;;;;;;;;;;;32.20;31.60;;;;;;4962168;29;21916;-94
2022/08/17 18:37:54;;;;;;;;;;;32.00;31.80;;;;;;4955662;28;19918;-94
2022/08/17 18:40:36;;;;;;;;;;;32.00;31.90;;;;;;4929652;29;19919;-95
2022/08/17 18:43:16;;;;;;;;;;;31.90;31.90;;;;;;4918555;29;20410;-94
2022/08/17 18:45:49;;;;;;;;;;;31.80;32.10;;;;;;4948473;29;19929;-93
2022/08/17 18:48:23;;;;;;;;;;;31.80;32.20;;;;;;4938860;29;20411;-95
2022/08/17 18:50:50;;;;;;;;;;;31.80;32.20;;;;;;4931117;29;19922;-94
2022/08/17 18:53:40;;;;;;;;;;;31.80;32.30;;;;;;4945517;29;19933;-93
2022/08/17 18:56:16;;;;;;;;;;;31.70;32.40;;;;;;4928694;29;19957;-94
2022/08/17 18:58:42;;;;;;;;;;;31.60;32.80;;;;;;4928883;29;19983;-92
2022/08/17 19:01:18;;;;;;;;;;;31.50;33.30;;;;;;4946567;29;19915;-95
2022/08/17 19:03:44;;;;;;;;;;;31.50;34.20;;;;;;4948583;29;20457;-94
2022/08/17 19:06:30;;;;;;;;;;;31.30;34.90;;;;;;4950349;29;19923;-94
2022/08/17 19:08:59;;;;;;;;;;;31.30;35.10;;;;;;4950285;29;20354;-94
2022/08/17 19:11:34;;;;;;;;;;;31.30;35.80;;;;;;4916444;29;20009;-95
2022/08/17 19:14:29;;;;;;;;;;;31.20;35.80;;;;;;4919824;29;19994;-92
2022/08/17 19:17:18;;;;;;;;;;;31.20;36.00;;;;;;4930167;29;20283;-95
2022/08/17 19:19:52;;;;;;;;;;;31.20;36.10;;;;;;4931918;29;19921;-96
2022/08/17 19:22:33;;;;;;;;;;;31.10;36.60;;;;;;4932637;29;19926;-95
2022/08/17 19:25:09;;;;;;;;;;;31.10;37.10;;;;;;4946417;29;19911;-94
2022/08/17 19:27:40;;;;;;;;;;;31.00;37.30;;;;;;4953733;29;19919;-95
2022/08/17 19:30:12;;;;;;;;;;;30.80;37.60;;;;;;4948813;29;19918;-94
2022/08/17 19:32:39;;;;;;;;;;;30.80;37.90;;;;;;4931589;29;19918;-93
2022/08/17 19:35:06;;;;;;;;;;;30.70;38.20;;;;;;4948920;29;19915;-91
2022/08/17 19:37:37;;;;;;;;;;;30.50;38.60;;;;;;4944307;29;19920;-93
2022/08/17 19:40:22;;;;;;;;;;;30.50;38.80;;;;;;4934143;29;19983;-90
2022/08/17 19:42:53;;;;;;;;;;;30.30;39.10;;;;;;4941039;29;20399;-93
2022/08/17 19:45:34;;;;;;;;;;;30.20;39.40;;;;;;4948383;29;19919;-94
2022/08/17 19:48:24;;;;;;;;;;;30.20;39.60;;;;;;4953753;29;19919;-94
2022/08/17 19:51:08;;;;;;;;;;;30.00;39.90;;;;;;4929929;29;20021;-94
2022/08/17 19:53:50;;;;;;;;;;;29.90;40.00;;;;;;4933097;29;20416;-92
2022/08/17 19:56:34;;;;;;;;;;;29.80;40.30;;;;;;4936051;29;19938;-92
2022/08/17 19:59:14;;;;;;;;;;;;;;;;;;;;;
2022/08/17 20:01:48;;;;;;;;;;;29.50;40.40;;;;;;4971700;29;19942;-93
2022/08/17 20:04:35;;;;;;;;;;;29.40;40.60;;;;;;4927172;29;19919;-95
2022/08/17 20:07:13;;;;;;;;;;;29.30;41.10;;;;;;4948000;29;19922;-93
2022/08/17 20:09:57;;;;;;;;;;;29.20;41.40;;;;;;4947833;29;19926;-93
2022/08/17 20:12:24;;;;;;;;;;;29.20;41.60;;;;;;4931476;29;20260;-93
2022/08/17 20:15:04;;;;;;;;;;;29.00;41.70;;;;;;4938186;29;19920;-95
2022/08/17 20:17:53;;;;;;;;;;;29.00;41.80;;;;;;4936474;29;20025;-95
2022/08/17 20:20:40;;;;;;;;;;;28.90;41.90;;;;;;4920824;29;19918;-95
2022/08/17 20:23:25;;;;;;;;;;;;;;;;;;;;;
2022/08/17 20:26:14;;;;;;;;;;;28.70;42.20;;;;;;4948645;29;20013;-95
2022/08/17 20:29:02;;;;;;;;;;;28.70;42.20;;;;;;4918222;29;19926;-94
2022/08/17 20:31:48;;;;;;;;;;;28.60;42.60;;;;;;4930349;29;19911;-91
2022/08/17 20:34:27;;;;;;;;;;;28.50;42.50;;;;;;4951932;29;19919;-91
2022/08/17 20:36:57;;;;;;;;;;;28.40;42.70;;;;;;4943076;29;19958;-93
2022/08/17 20:39:41;;;;;;;;;;;28.30;42.90;;;;;;4950028;29;19992;-93
2022/08/17 20:42:27;;;;;;;;;;;28.30;43.20;;;;;;4945367;29;19911;-92
2022/08/17 20:44:56;;;;;;;;;;;28.20;43.30;;;;;;4961222;29;19911;-94
2022/08/17 20:47:46;;;;;;;;;;;28.10;43.40;;;;;;4948627;29;19954;-92
2022/08/17 20:50:14;;;;;;;;;;;28.00;43.50;;;;;;4942191;29;20009;-93
2022/08/17 20:52:47;;;;;;;;;;;27.90;43.80;;;;;;4951502;29;19918;-92
2022/08/17 20:55:32;;;;;;;;;;;27.90;43.90;;;;;;4951020;29;19910;-94
2022/08/17 20:57:57;;;;;;;;;;;27.80;44.00;;;;;;4949272;29;19926;-94
2022/08/17 21:00:29;;;;;;;;;;;27.70;44.10;;;;;;4935928;29;19895;-92
2022/08/17 21:03:17;;;;;;;;;;;27.70;44.20;;;;;;4951751;29;19943;-91
2022/08/17 21:05:52;;;;;;;;;;;27.60;44.20;;;;;;4960308;29;19922;-94
2022/08/17 21:08:24;;;;;;;;;;;27.50;44.50;;;;;;4960241;29;19914;-94
2022/08/17 21:10:50;;;;;;;;;;;27.40;44.90;;;;;;4942724;29;20507;-95
2022/08/17 21:13:30;;;;;;;;;;;27.40;45.50;;;;;;4933575;29;20001;-94
2022/08/17 21:16:05;;;;;;;;;;;27.40;45.60;;;;;;4945077;29;19989;-92
2022/08/17 21:18:37;;;;;;;;;;;27.30;45.40;;;;;;4952328;29;19921;-92
2022/08/17 21:21:09;;;;;;;;;;;27.30;45.60;;;;;;4947849;29;19925;-93
2022/08/17 21:23:53;;;;;;;;;;;27.30;45.70;;;;;;4945507;29;19911;-90
2022/08/17 21:26:51;;;;;;;;;;;27.30;45.80;;;;;;4939996;29;20018;-95
2022/08/17 21:29:22;;;;;;;;;;;27.30;45.90;;;;;;4917560;29;19919;-95
2022/08/17 21:32:00;;;;;;;;;;;27.30;46.00;;;;;;4954316;29;19910;-94
2022/08/17 21:34:25;;;;;;;;;;;27.30;45.90;;;;;;4933627;29;19978;-93
2022/08/17 21:36:51;;;;;;;;;;;27.30;46.00;;;;;;4947697;29;19943;-92
2022/08/17 21:39:23;;;;;;;;;;;27.30;46.40;;;;;;4942613;29;19918;-96
2022/08/17 21:41:57;;;;;;;;;;;27.40;46.70;;;;;;4952957;29;20421;-89
2022/08/17 21:44:32;;;;;;;;;;;27.40;46.70;;;;;;4924180;29;19919;-90
2022/08/17 21:47:11;;;;;;;;;;;27.40;46.60;;;;;;4943796;29;19915;-90
2022/08/17 21:49:37;;;;;;;;;;;27.50;46.70;;;;;;4940063;29;19974;-89
2022/08/17 21:52:04;;;;;;;;;;;27.50;47.10;;;;;;4940418;29;19911;-87
2022/08/17 21:54:34;;;;;;;;;;;27.60;47.40;;;;;;4917324;29;19919;-89
2022/08/17 21:57:01;;;;;;;;;;;27.70;47.60;;;;;;4924265;29;19926;-88
2022/08/17 21:59:29;;;;;;;;;;;27.70;47.70;;;;;;4938875;29;19915;-88
2022/08/17 22:02:17;;;;;;;;;;;27.70;47.70;;;;;;4921970;29;19914;-88
2022/08/17 22:04:53;;;;;;;;;;;27.70;48.10;;;;;;4919388;29;19915;-88
2022/08/17 22:07:32;;;;;;;;;;;27.60;48.10;;;;;;4921265;29;19929;-89
2022/08/17 22:09:58;;;;;;;;;;;27.50;48.10;;;;;;4925699;29;20381;-88
2022/08/17 22:12:23;;;;;;;;;;;27.50;48.00;;;;;;4922069;29;19922;-88
2022/08/17 22:14:52;;;;;;;;;;;27.40;48.20;;;;;;4937826;29;19942;-88
2022/08/17 22:17:27;;;;;;;;;;;27.30;48.20;;;;;;4939854;29;19922;-89
2022/08/17 22:20:00;;;;;;;;;;;27.20;48.10;;;;;;4922371;29;19915;-89
2022/08/17 22:22:28;;;;;;;;;;;27.20;48.20;;;;;;4946535;29;19922;-88
2022/08/17 22:24:55;;;;;;;;;;;27.10;48.30;;;;;;4944260;29;19922;-88
2022/08/17 22:27:21;;;;;;;;;;;27.00;48.40;;;;;;4941251;29;19982;-88
2022/08/17 22:29:51;;;;;;;;;;;26.90;48.80;;;;;;4926471;29;19915;-91
2022/08/17 22:32:51;;;;;;;;;;;26.80;49.30;;;;;;4937882;29;19914;-88
2022/08/17 22:35:37;;;;;;;;;;;26.80;50.10;;;;;;4918438;29;20017;-89
2022/08/17 22:38:18;;;;;;;;;;;26.70;50.00;;;;;;4928847;29;19918;-87